AAL1998 KCMH-KPHX
Flight info
| Callsign | AAL1998 |
|---|---|
| Flight time | 4h 5m |
| Altitude | 28000 |
| Route | PKACZ TARRY DQN BVT MAROC CHASY LMN/N0466F300 KP60C DUUZE GOSIP ROSEI GUP EAGUL6 |
| Aircraft | B738/M-SDE2E3FGHIRWXY/LB1 |
Departure
| Time | 2026-05-04 22:29 |
|---|---|
| Airport | John Glenn Columbus International Airport (KCMH) |
Arrival
| Time | 2026-05-05 02:34 |
|---|---|
| Airport | Phoenix Sky Harbor International Airport (KPHX) |
| Time | Latitude | Longitude | Altitude | Speed | Heading |
|---|---|---|---|---|---|
| 2026-05-04 22:06 | 39.99834 | -82.87991 | 805 ft | 0 kts | 278° |
| 2026-05-04 22:17 | 39.99832 | -82.87982 | 824 ft | 3 kts | 277° |
| 2026-05-04 22:17 | 39.99831 | -82.87955 | 824 ft | 3 kts | 269° |
| 2026-05-04 22:17 | 39.99832 | -82.87930 | 824 ft | 3 kts | 256° |
| 2026-05-04 22:17 | 39.99839 | -82.87906 | 824 ft | 3 kts | 229° |
| 2026-05-04 22:18 | 39.99851 | -82.87894 | 822 ft | 2 kts | 187° |
| 2026-05-04 22:18 | 39.99854 | -82.87893 | 823 ft | 1 kts | 184° |
| 2026-05-04 22:22 | 39.99838 | -82.87894 | 821 ft | 4 kts | 182° |
| 2026-05-04 22:22 | 39.99802 | -82.87898 | 824 ft | 6 kts | 184° |
| 2026-05-04 22:23 | 39.99753 | -82.87898 | 820 ft | 8 kts | 183° |
| 2026-05-04 22:23 | 39.99693 | -82.87906 | 824 ft | 10 kts | 186° |
| 2026-05-04 22:23 | 39.99622 | -82.87910 | 821 ft | 11 kts | 173° |
| 2026-05-04 22:23 | 39.99569 | -82.87912 | 824 ft | 12 kts | 184° |
| 2026-05-04 22:24 | 39.99492 | -82.87891 | 824 ft | 12 kts | 124° |
| 2026-05-04 22:24 | 39.99461 | -82.87801 | 824 ft | 11 kts | 141° |
| 2026-05-04 22:24 | 39.99386 | -82.87785 | 824 ft | 11 kts | 159° |
| 2026-05-04 22:24 | 39.99361 | -82.87697 | 824 ft | 11 kts | 97° |
| 2026-05-04 22:25 | 39.99355 | -82.87601 | 824 ft | 10 kts | 93° |
| 2026-05-04 22:25 | 39.99351 | -82.87509 | 824 ft | 10 kts | 95° |
| 2026-05-04 22:25 | 39.99344 | -82.87419 | 824 ft | 10 kts | 94° |
| 2026-05-04 22:25 | 39.99324 | -82.87338 | 824 ft | 10 kts | 137° |
| 2026-05-04 22:26 | 39.99260 | -82.87324 | 823 ft | 8 kts | 181° |
| 2026-05-04 22:26 | 39.99252 | -82.87324 | 823 ft | 0 kts | 185° |
| 2026-05-04 22:26 | 39.99231 | -82.87327 | 823 ft | 8 kts | 185° |
| 2026-05-04 22:27 | 39.99178 | -82.87347 | 823 ft | 8 kts | 221° |
| 2026-05-04 22:27 | 39.99168 | -82.87417 | 823 ft | 8 kts | 274° |
| 2026-05-04 22:27 | 39.99169 | -82.87425 | 823 ft | 0 kts | 274° |
| 2026-05-04 22:28 | 39.99171 | -82.87468 | 823 ft | 13 kts | 274° |
| 2026-05-04 22:28 | 39.99190 | -82.87740 | 822 ft | 47 kts | 273° |
| 2026-05-04 22:28 | 39.99231 | -82.88517 | 825 ft | 124 kts | 274° |
| 2026-05-04 22:28 | 39.99346 | -82.89877 | 1094 ft | 167 kts | 272° |
| 2026-05-04 22:29 | 39.99515 | -82.91452 | 1921 ft | 181 kts | 272° |
| 2026-05-04 22:29 | 39.99593 | -82.93180 | 2584 ft | 202 kts | 267° |
| 2026-05-04 22:29 | 39.99633 | -82.95037 | 3308 ft | 199 kts | 265° |
| 2026-05-04 22:29 | 39.99659 | -82.96755 | 4233 ft | 190 kts | 266° |
| 2026-05-04 22:30 | 39.99684 | -82.98521 | 4819 ft | 197 kts | 267° |
| 2026-05-04 22:30 | 39.99715 | -83.00247 | 5571 ft | 192 kts | 268° |
| 2026-05-04 22:30 | 39.99751 | -83.02005 | 6185 ft | 198 kts | 269° |
| 2026-05-04 22:30 | 39.99792 | -83.03863 | 6591 ft | 210 kts | 269° |
| 2026-05-04 22:31 | 39.99839 | -83.05837 | 6844 ft | 232 kts | 269° |
| 2026-05-04 22:31 | 39.99894 | -83.07983 | 7537 ft | 239 kts | 269° |
| 2026-05-04 22:31 | 39.99953 | -83.10157 | 8426 ft | 241 kts | 269° |
| 2026-05-04 22:31 | 40.00015 | -83.12350 | 9314 ft | 243 kts | 269° |
| 2026-05-04 22:32 | 40.00078 | -83.14568 | 10149 ft | 246 kts | 270° |
| 2026-05-04 22:32 | 40.00144 | -83.16873 | 10523 ft | 266 kts | 269° |
| 2026-05-04 22:32 | 40.00214 | -83.19391 | 10742 ft | 289 kts | 270° |
| 2026-05-04 22:32 | 40.00290 | -83.22057 | 11292 ft | 298 kts | 270° |
| 2026-05-04 22:33 | 40.00370 | -83.24776 | 12037 ft | 302 kts | 270° |
| 2026-05-04 22:33 | 40.00450 | -83.27519 | 12845 ft | 304 kts | 271° |
| 2026-05-04 22:33 | 40.00531 | -83.30290 | 13617 ft | 307 kts | 271° |
| 2026-05-04 22:33 | 40.00610 | -83.33054 | 14244 ft | 312 kts | 271° |
| 2026-05-04 22:34 | 40.00691 | -83.35909 | 14846 ft | 318 kts | 271° |
| 2026-05-04 22:34 | 40.00773 | -83.38820 | 15440 ft | 324 kts | 271° |
| 2026-05-04 22:34 | 40.00855 | -83.41781 | 16048 ft | 329 kts | 272° |
| 2026-05-04 22:34 | 40.00938 | -83.44780 | 16702 ft | 333 kts | 272° |
| 2026-05-04 22:35 | 40.01021 | -83.47825 | 17290 ft | 339 kts | 272° |
| 2026-05-04 22:35 | 40.01105 | -83.50921 | 17866 ft | 344 kts | 272° |
| 2026-05-04 22:35 | 40.01189 | -83.54067 | 18417 ft | 349 kts | 272° |
| 2026-05-04 22:35 | 40.01273 | -83.57221 | 19107 ft | 348 kts | 272° |
| 2026-05-04 22:36 | 40.01485 | -83.60384 | 19653 ft | 352 kts | 278° |
| 2026-05-04 22:36 | 40.01876 | -83.63552 | 20153 ft | 356 kts | 279° |
| 2026-05-04 22:36 | 40.02303 | -83.66755 | 20686 ft | 360 kts | 279° |
| 2026-05-04 22:36 | 40.02731 | -83.69982 | 21229 ft | 362 kts | 279° |
| 2026-05-04 22:37 | 40.03152 | -83.73239 | 21741 ft | 366 kts | 279° |
| 2026-05-04 22:37 | 40.03567 | -83.76521 | 22258 ft | 369 kts | 278° |
| 2026-05-04 22:37 | 40.03980 | -83.79843 | 22768 ft | 372 kts | 278° |
| 2026-05-04 22:37 | 40.04393 | -83.83187 | 23274 ft | 375 kts | 278° |
| 2026-05-04 22:38 | 40.04809 | -83.86570 | 23686 ft | 378 kts | 278° |
| 2026-05-04 22:38 | 40.05206 | -83.89970 | 24106 ft | 381 kts | 276° |
| 2026-05-04 22:38 | 40.05298 | -83.93426 | 24550 ft | 381 kts | 266° |
| 2026-05-04 22:38 | 40.05039 | -83.96874 | 25038 ft | 383 kts | 264° |
| 2026-05-04 22:39 | 40.04757 | -84.00257 | 25389 ft | 386 kts | 264° |
| 2026-05-04 22:39 | 40.04466 | -84.03757 | 25747 ft | 390 kts | 265° |
| 2026-05-04 22:39 | 40.04183 | -84.07241 | 26139 ft | 392 kts | 265° |
| 2026-05-04 22:39 | 40.03899 | -84.10798 | 26506 ft | 395 kts | 265° |
| 2026-05-04 22:40 | 40.03616 | -84.14371 | 26870 ft | 398 kts | 265° |
| 2026-05-04 22:40 | 40.03332 | -84.17976 | 27229 ft | 400 kts | 265° |
| 2026-05-04 22:40 | 40.03046 | -84.21604 | 27578 ft | 403 kts | 265° |
| 2026-05-04 22:40 | 40.02756 | -84.25256 | 27922 ft | 406 kts | 265° |
| 2026-05-04 22:41 | 40.02465 | -84.28925 | 28255 ft | 408 kts | 265° |
| 2026-05-04 22:41 | 40.02170 | -84.32622 | 28571 ft | 411 kts | 265° |
| 2026-05-04 22:41 | 40.01890 | -84.36339 | 28917 ft | 412 kts | 268° |
| 2026-05-04 22:41 | 40.01944 | -84.40069 | 29336 ft | 411 kts | 276° |
| 2026-05-04 22:42 | 40.02393 | -84.43737 | 29834 ft | 409 kts | 284° |
| 2026-05-04 22:42 | 40.03151 | -84.47304 | 30225 ft | 408 kts | 285° |
| 2026-05-04 22:42 | 40.03922 | -84.50817 | 30568 ft | 408 kts | 286° |
| 2026-05-04 22:42 | 40.04704 | -84.54370 | 30908 ft | 407 kts | 285° |
| 2026-05-04 22:43 | 40.05480 | -84.57923 | 31273 ft | 407 kts | 285° |
| 2026-05-04 22:43 | 40.06250 | -84.61478 | 31634 ft | 406 kts | 285° |
| 2026-05-04 22:43 | 40.07013 | -84.65027 | 31983 ft | 406 kts | 285° |
| 2026-05-04 22:43 | 40.07770 | -84.68570 | 32331 ft | 404 kts | 285° |
| 2026-05-04 22:44 | 40.08520 | -84.72097 | 32756 ft | 402 kts | 285° |
| 2026-05-04 22:44 | 40.09266 | -84.75612 | 33088 ft | 402 kts | 285° |
| 2026-05-04 22:44 | 40.10012 | -84.79139 | 33356 ft | 403 kts | 285° |
| 2026-05-04 22:44 | 40.10756 | -84.82665 | 33624 ft | 403 kts | 285° |
| 2026-05-04 22:45 | 40.11504 | -84.86212 | 33757 ft | 406 kts | 285° |
| 2026-05-04 22:45 | 40.13753 | -84.96917 | 33737 ft | 403 kts | 285° |
| 2026-05-04 22:46 | 40.15195 | -85.03809 | 33757 ft | 400 kts | 285° |
| 2026-05-04 22:46 | 40.16662 | -85.10839 | 33756 ft | 400 kts | 285° |
| 2026-05-04 22:47 | 40.18122 | -85.17862 | 33723 ft | 400 kts | 285° |
| 2026-05-04 22:47 | 40.19580 | -85.24900 | 33735 ft | 400 kts | 284° |
| 2026-05-04 22:48 | 40.21030 | -85.31926 | 33741 ft | 400 kts | 284° |
| 2026-05-04 22:48 | 40.22477 | -85.38953 | 33745 ft | 400 kts | 284° |
| 2026-05-04 22:49 | 40.23916 | -85.45974 | 33755 ft | 399 kts | 284° |
| 2026-05-04 22:49 | 40.25341 | -85.52944 | 33745 ft | 399 kts | 284° |
| 2026-05-04 22:50 | 40.26770 | -85.59956 | 33747 ft | 398 kts | 284° |
| 2026-05-04 22:50 | 40.28191 | -85.66954 | 33764 ft | 397 kts | 284° |
| 2026-05-04 22:51 | 40.29608 | -85.73957 | 33749 ft | 397 kts | 284° |
| 2026-05-04 22:51 | 40.31020 | -85.80959 | 33748 ft | 397 kts | 284° |
| 2026-05-04 22:52 | 40.32428 | -85.87961 | 33753 ft | 397 kts | 284° |
| 2026-05-04 22:52 | 40.33829 | -85.94959 | 33755 ft | 397 kts | 284° |
| 2026-05-04 22:53 | 40.35201 | -86.01832 | 33747 ft | 397 kts | 284° |
| 2026-05-04 22:53 | 40.36594 | -86.08835 | 33753 ft | 397 kts | 284° |
| 2026-05-04 22:54 | 40.37983 | -86.15838 | 33745 ft | 397 kts | 284° |
| 2026-05-04 22:54 | 40.39367 | -86.22846 | 33739 ft | 396 kts | 283° |
| 2026-05-04 22:55 | 40.40746 | -86.29849 | 33737 ft | 396 kts | 283° |
| 2026-05-04 22:55 | 40.42121 | -86.36859 | 33747 ft | 397 kts | 283° |
| 2026-05-04 22:56 | 40.43499 | -86.43909 | 33726 ft | 399 kts | 283° |
| 2026-05-04 22:56 | 40.44874 | -86.50965 | 33716 ft | 400 kts | 283° |
| 2026-05-04 22:57 | 40.46248 | -86.58035 | 33712 ft | 400 kts | 282° |
| 2026-05-04 22:57 | 40.47607 | -86.65064 | 33713 ft | 399 kts | 282° |
| 2026-05-04 22:58 | 40.48970 | -86.72134 | 33718 ft | 398 kts | 282° |
| 2026-05-04 22:58 | 40.50294 | -86.79027 | 33715 ft | 398 kts | 282° |
| 2026-05-04 22:59 | 40.51642 | -86.86071 | 33710 ft | 397 kts | 282° |
| 2026-05-04 22:59 | 40.52984 | -86.93107 | 33713 ft | 396 kts | 282° |
| 2026-05-04 23:00 | 40.54317 | -87.00113 | 33730 ft | 396 kts | 281° |
| 2026-05-04 23:00 | 40.55616 | -87.07106 | 33690 ft | 395 kts | 279° |
| 2026-05-04 23:01 | 40.56297 | -87.14258 | 33701 ft | 394 kts | 275° |
| 2026-05-04 23:01 | 40.56895 | -87.21386 | 33715 ft | 394 kts | 275° |
| 2026-05-04 23:02 | 40.57505 | -87.28564 | 33692 ft | 395 kts | 275° |
| 2026-05-04 23:02 | 40.58121 | -87.35751 | 33682 ft | 396 kts | 274° |
| 2026-05-04 23:03 | 40.58738 | -87.42960 | 33700 ft | 397 kts | 274° |
| 2026-05-04 23:03 | 40.59355 | -87.50203 | 33704 ft | 398 kts | 274° |
| 2026-05-04 23:04 | 40.59969 | -87.57469 | 33682 ft | 400 kts | 274° |
| 2026-05-04 23:04 | 40.60580 | -87.64748 | 33686 ft | 400 kts | 274° |
| 2026-05-04 23:05 | 40.61182 | -87.71982 | 33692 ft | 400 kts | 275° |
| 2026-05-04 23:05 | 40.61784 | -87.79270 | 33690 ft | 400 kts | 275° |
| 2026-05-04 23:06 | 40.62382 | -87.86565 | 33670 ft | 401 kts | 275° |
| 2026-05-04 23:06 | 40.62975 | -87.93855 | 33672 ft | 400 kts | 275° |
| 2026-05-04 23:07 | 40.63556 | -88.01059 | 33660 ft | 400 kts | 275° |
| 2026-05-04 23:07 | 40.64137 | -88.08324 | 33666 ft | 399 kts | 274° |
| 2026-05-04 23:08 | 40.64714 | -88.15588 | 33662 ft | 399 kts | 275° |
| 2026-05-04 23:08 | 40.65286 | -88.22849 | 33657 ft | 398 kts | 275° |
| 2026-05-04 23:09 | 40.65848 | -88.30050 | 33654 ft | 398 kts | 275° |
| 2026-05-04 23:09 | 40.66410 | -88.37298 | 33656 ft | 398 kts | 274° |
| 2026-05-04 23:10 | 40.66967 | -88.44549 | 33657 ft | 398 kts | 274° |
| 2026-05-04 23:10 | 40.67519 | -88.51797 | 33660 ft | 398 kts | 274° |
| 2026-05-04 23:11 | 40.68068 | -88.59056 | 33659 ft | 398 kts | 274° |
| 2026-05-04 23:11 | 40.68612 | -88.66317 | 33660 ft | 398 kts | 274° |
| 2026-05-04 23:12 | 40.69150 | -88.73570 | 33658 ft | 398 kts | 274° |
| 2026-05-04 23:12 | 40.69684 | -88.80819 | 33663 ft | 397 kts | 274° |
| 2026-05-04 23:13 | 40.70211 | -88.88029 | 33664 ft | 397 kts | 274° |
| 2026-05-04 23:13 | 40.70736 | -88.95286 | 33657 ft | 397 kts | 274° |
| 2026-05-04 23:14 | 40.71251 | -89.02461 | 33655 ft | 397 kts | 274° |
| 2026-05-04 23:14 | 40.71766 | -89.09712 | 33647 ft | 397 kts | 274° |
| 2026-05-04 23:15 | 40.72277 | -89.16958 | 33644 ft | 397 kts | 274° |
| 2026-05-04 23:15 | 40.72780 | -89.24157 | 33646 ft | 397 kts | 275° |
| 2026-05-04 23:16 | 40.73200 | -89.30219 | 33640 ft | 396 kts | 275° |
| 2026-05-04 23:16 | 40.73736 | -89.38628 | 33632 ft | 396 kts | 271° |
| 2026-05-04 23:17 | 40.73782 | -89.44695 | 33637 ft | 395 kts | 270° |
| 2026-05-04 23:17 | 40.73749 | -89.51938 | 33631 ft | 395 kts | 269° |
| 2026-05-04 23:18 | 40.73721 | -89.59168 | 33628 ft | 394 kts | 270° |
| 2026-05-04 23:18 | 40.73705 | -89.66353 | 33628 ft | 394 kts | 270° |
| 2026-05-04 23:19 | 40.73692 | -89.73580 | 33625 ft | 394 kts | 270° |
| 2026-05-04 23:19 | 40.73678 | -89.80699 | 33628 ft | 394 kts | 270° |
| 2026-05-04 23:20 | 40.73659 | -89.87922 | 33627 ft | 394 kts | 270° |
| 2026-05-04 23:20 | 40.73636 | -89.95143 | 33628 ft | 394 kts | 270° |
| 2026-05-04 23:21 | 40.73608 | -90.02288 | 33634 ft | 393 kts | 270° |
| 2026-05-04 23:21 | 40.73576 | -90.09490 | 33617 ft | 392 kts | 270° |
| 2026-05-04 23:22 | 40.73539 | -90.16657 | 33615 ft | 390 kts | 270° |
| 2026-05-04 23:22 | 40.73499 | -90.23737 | 33618 ft | 388 kts | 270° |
| 2026-05-04 23:23 | 40.73453 | -90.30849 | 33618 ft | 386 kts | 270° |
| 2026-05-04 23:23 | 40.73404 | -90.37923 | 33624 ft | 385 kts | 270° |
| 2026-05-04 23:24 | 40.73351 | -90.44991 | 33629 ft | 384 kts | 270° |
| 2026-05-04 23:24 | 40.73297 | -90.51531 | 33628 ft | 384 kts | 270° |
| 2026-05-04 23:25 | 40.73236 | -90.58551 | 33631 ft | 383 kts | 270° |
| 2026-05-04 23:25 | 40.73178 | -90.64782 | 33633 ft | 383 kts | 270° |
| 2026-05-04 23:26 | 40.73112 | -90.71567 | 33633 ft | 383 kts | 270° |
| 2026-05-04 23:26 | 40.73040 | -90.78441 | 33641 ft | 383 kts | 270° |
| 2026-05-04 23:27 | 40.72962 | -90.85461 | 33624 ft | 383 kts | 270° |
| 2026-05-04 23:27 | 40.72880 | -90.92475 | 33619 ft | 382 kts | 270° |
| 2026-05-04 23:28 | 40.72795 | -90.99442 | 33607 ft | 382 kts | 270° |
| 2026-05-04 23:28 | 40.72706 | -91.06344 | 33607 ft | 382 kts | 270° |
| 2026-05-04 23:29 | 40.72612 | -91.13345 | 33608 ft | 382 kts | 270° |
| 2026-05-04 23:29 | 40.72516 | -91.20165 | 33610 ft | 381 kts | 270° |
| 2026-05-04 23:30 | 40.72413 | -91.27134 | 33606 ft | 379 kts | 270° |
| 2026-05-04 23:30 | 40.72308 | -91.34077 | 33610 ft | 378 kts | 270° |
| 2026-05-04 23:31 | 40.72198 | -91.41003 | 33607 ft | 377 kts | 270° |
| 2026-05-04 23:31 | 40.72084 | -91.47907 | 33611 ft | 376 kts | 270° |
| 2026-05-04 23:32 | 40.71967 | -91.54801 | 33617 ft | 376 kts | 270° |
| 2026-05-04 23:32 | 40.71845 | -91.61683 | 33605 ft | 375 kts | 270° |
| 2026-05-04 23:33 | 40.71720 | -91.68552 | 33603 ft | 374 kts | 270° |
| 2026-05-04 23:33 | 40.71592 | -91.75363 | 33605 ft | 373 kts | 270° |
| 2026-05-04 23:34 | 40.71459 | -91.82207 | 33602 ft | 373 kts | 270° |
| 2026-05-04 23:34 | 40.71323 | -91.89010 | 33607 ft | 373 kts | 270° |
| 2026-05-04 23:35 | 40.71182 | -91.95843 | 33611 ft | 373 kts | 270° |
| 2026-05-04 23:35 | 40.71039 | -92.02597 | 33604 ft | 372 kts | 270° |
| 2026-05-04 23:36 | 40.70891 | -92.09416 | 33611 ft | 372 kts | 270° |
| 2026-05-04 23:36 | 40.70738 | -92.16237 | 33610 ft | 372 kts | 270° |
| 2026-05-04 23:37 | 40.70583 | -92.23011 | 33611 ft | 372 kts | 270° |
| 2026-05-04 23:37 | 40.70423 | -92.29828 | 33607 ft | 372 kts | 270° |
| 2026-05-04 23:38 | 40.70258 | -92.36649 | 33613 ft | 372 kts | 270° |
| 2026-05-04 23:38 | 40.70090 | -92.43471 | 33617 ft | 372 kts | 270° |
| 2026-05-04 23:39 | 40.69918 | -92.50274 | 33617 ft | 372 kts | 270° |
| 2026-05-04 23:39 | 40.69742 | -92.57081 | 33616 ft | 372 kts | 270° |
| 2026-05-04 23:40 | 40.69564 | -92.63846 | 33621 ft | 372 kts | 270° |
| 2026-05-04 23:40 | 40.69365 | -92.70651 | 33629 ft | 372 kts | 269° |
| 2026-05-04 23:41 | 40.68921 | -92.77443 | 33620 ft | 372 kts | 267° |
| 2026-05-04 23:41 | 40.68401 | -92.84228 | 33656 ft | 372 kts | 267° |
| 2026-05-04 23:42 | 40.67890 | -92.91012 | 33654 ft | 372 kts | 267° |
| 2026-05-04 23:42 | 40.67389 | -92.97784 | 33656 ft | 372 kts | 267° |
| 2026-05-04 23:43 | 40.66894 | -93.04486 | 33651 ft | 371 kts | 267° |
| 2026-05-04 23:43 | 40.66391 | -93.11257 | 33647 ft | 371 kts | 267° |
| 2026-05-04 23:44 | 40.65889 | -93.17974 | 33644 ft | 371 kts | 267° |
| 2026-05-04 23:44 | 40.65380 | -93.24734 | 33639 ft | 371 kts | 267° |
| 2026-05-04 23:45 | 40.64867 | -93.31488 | 33636 ft | 371 kts | 267° |
| 2026-05-04 23:45 | 40.64349 | -93.38256 | 33637 ft | 371 kts | 267° |
| 2026-05-04 23:46 | 40.63827 | -93.45016 | 33630 ft | 371 kts | 267° |
| 2026-05-04 23:46 | 40.63305 | -93.51732 | 33638 ft | 371 kts | 266° |
| 2026-05-04 23:47 | 40.62775 | -93.58493 | 33638 ft | 371 kts | 267° |
| 2026-05-04 23:47 | 40.62241 | -93.65263 | 33638 ft | 372 kts | 266° |
| 2026-05-04 23:48 | 40.61703 | -93.72027 | 33633 ft | 371 kts | 266° |
| 2026-05-04 23:48 | 40.61162 | -93.78785 | 33670 ft | 371 kts | 266° |
| 2026-05-04 23:49 | 40.60616 | -93.85548 | 33665 ft | 371 kts | 266° |
| 2026-05-04 23:49 | 40.60068 | -93.92300 | 33666 ft | 371 kts | 266° |
| 2026-05-04 23:50 | 40.59457 | -93.99050 | 33665 ft | 372 kts | 264° |
| 2026-05-04 23:50 | 40.58653 | -94.05320 | 33664 ft | 372 kts | 263° |
| 2026-05-04 23:51 | 40.57744 | -94.12026 | 33658 ft | 372 kts | 263° |
| 2026-05-04 23:51 | 40.56845 | -94.18728 | 33649 ft | 372 kts | 263° |
| 2026-05-04 23:52 | 40.55953 | -94.25433 | 33649 ft | 371 kts | 263° |
| 2026-05-04 23:52 | 40.55065 | -94.32126 | 33643 ft | 371 kts | 263° |
| 2026-05-04 23:53 | 40.54173 | -94.38823 | 33640 ft | 371 kts | 263° |
| 2026-05-04 23:53 | 40.53286 | -94.45463 | 33645 ft | 371 kts | 263° |
| 2026-05-04 23:54 | 40.52389 | -94.52151 | 33645 ft | 371 kts | 263° |
| 2026-05-04 23:54 | 40.51488 | -94.58832 | 33652 ft | 371 kts | 263° |
| 2026-05-04 23:55 | 40.50583 | -94.65513 | 33646 ft | 371 kts | 263° |
| 2026-05-04 23:56 | 40.49218 | -94.75532 | 33666 ft | 371 kts | 263° |
| 2026-05-04 23:56 | 40.48304 | -94.82202 | 33668 ft | 371 kts | 263° |
| 2026-05-04 23:57 | 40.47386 | -94.88871 | 33670 ft | 371 kts | 263° |
| 2026-05-04 23:57 | 40.46466 | -94.95530 | 33658 ft | 370 kts | 263° |
| 2026-05-04 23:58 | 40.45552 | -95.02109 | 33665 ft | 370 kts | 263° |
| 2026-05-04 23:58 | 40.44626 | -95.08750 | 33669 ft | 369 kts | 263° |
| 2026-05-04 23:59 | 40.43703 | -95.15341 | 33667 ft | 369 kts | 263° |
| 2026-05-04 23:59 | 40.42770 | -95.21973 | 33662 ft | 369 kts | 263° |
| 2026-05-05 00:00 | 40.41835 | -95.28594 | 33655 ft | 369 kts | 263° |
| 2026-05-05 00:00 | 40.40895 | -95.35214 | 33668 ft | 368 kts | 263° |
| 2026-05-05 00:01 | 40.39960 | -95.41779 | 33657 ft | 368 kts | 263° |
| 2026-05-05 00:01 | 40.39015 | -95.48382 | 33664 ft | 368 kts | 263° |
| 2026-05-05 00:02 | 40.38067 | -95.54984 | 33662 ft | 368 kts | 263° |
| 2026-05-05 00:02 | 40.37114 | -95.61587 | 33661 ft | 368 kts | 263° |
| 2026-05-05 00:03 | 40.36157 | -95.68189 | 33685 ft | 368 kts | 263° |
| 2026-05-05 00:03 | 40.35197 | -95.74786 | 33681 ft | 368 kts | 263° |
| 2026-05-05 00:04 | 40.34235 | -95.81368 | 33698 ft | 367 kts | 263° |
| 2026-05-05 00:04 | 40.33270 | -95.87948 | 33697 ft | 368 kts | 263° |
| 2026-05-05 00:05 | 40.32306 | -95.94492 | 33695 ft | 368 kts | 263° |
| 2026-05-05 00:05 | 40.31343 | -96.00997 | 33681 ft | 367 kts | 263° |
| 2026-05-05 00:06 | 40.30368 | -96.07560 | 33676 ft | 367 kts | 263° |
| 2026-05-05 00:06 | 40.29390 | -96.14116 | 33682 ft | 366 kts | 263° |
| 2026-05-05 00:07 | 40.28411 | -96.20650 | 33682 ft | 365 kts | 263° |
| 2026-05-05 00:07 | 40.27597 | -96.26064 | 33689 ft | 364 kts | 263° |
| 2026-05-05 00:08 | 40.26616 | -96.32568 | 33692 ft | 364 kts | 263° |
| 2026-05-05 00:08 | 40.25632 | -96.39057 | 33695 ft | 363 kts | 263° |
| 2026-05-05 00:09 | 40.24648 | -96.45528 | 33692 ft | 362 kts | 263° |
| 2026-05-05 00:09 | 40.23661 | -96.51996 | 33691 ft | 361 kts | 264° |
| 2026-05-05 00:10 | 40.22674 | -96.58433 | 33722 ft | 360 kts | 264° |
| 2026-05-05 00:10 | 40.21695 | -96.64816 | 33646 ft | 361 kts | 264° |
| 2026-05-05 00:11 | 40.20706 | -96.71217 | 33718 ft | 358 kts | 264° |
| 2026-05-05 00:11 | 40.19714 | -96.77601 | 33726 ft | 357 kts | 264° |
| 2026-05-05 00:12 | 40.18724 | -96.83957 | 33727 ft | 357 kts | 264° |
| 2026-05-05 00:12 | 40.17732 | -96.90309 | 33715 ft | 356 kts | 263° |
| 2026-05-05 00:13 | 40.16736 | -96.96660 | 33709 ft | 356 kts | 263° |
| 2026-05-05 00:13 | 40.15751 | -97.02916 | 33705 ft | 356 kts | 263° |
| 2026-05-05 00:14 | 40.14751 | -97.09244 | 33703 ft | 355 kts | 263° |
| 2026-05-05 00:14 | 40.13748 | -97.15566 | 33715 ft | 355 kts | 263° |
| 2026-05-05 00:15 | 40.12747 | -97.21854 | 33697 ft | 355 kts | 263° |
| 2026-05-05 00:15 | 40.11736 | -97.28183 | 33696 ft | 355 kts | 263° |
| 2026-05-05 00:16 | 40.10763 | -97.34248 | 33702 ft | 356 kts | 263° |
| 2026-05-05 00:16 | 40.09754 | -97.40516 | 33706 ft | 356 kts | 263° |
| 2026-05-05 00:17 | 40.08734 | -97.46836 | 33712 ft | 356 kts | 263° |
| 2026-05-05 00:17 | 40.07704 | -97.53182 | 33703 ft | 356 kts | 263° |
| 2026-05-05 00:18 | 40.06674 | -97.59512 | 33684 ft | 357 kts | 263° |
| 2026-05-05 00:18 | 40.05646 | -97.65813 | 33700 ft | 357 kts | 263° |
| 2026-05-05 00:19 | 40.04608 | -97.72142 | 33719 ft | 357 kts | 263° |
| 2026-05-05 00:19 | 40.03566 | -97.78477 | 33701 ft | 357 kts | 263° |
| 2026-05-05 00:20 | 40.02521 | -97.84814 | 33703 ft | 357 kts | 263° |
| 2026-05-05 00:20 | 40.01473 | -97.91145 | 33698 ft | 357 kts | 263° |
| 2026-05-05 00:21 | 40.00420 | -97.97477 | 33687 ft | 357 kts | 263° |
| 2026-05-05 00:21 | 39.98988 | -98.03646 | 33705 ft | 361 kts | 256° |
| 2026-05-05 00:22 | 39.97185 | -98.09768 | 33704 ft | 361 kts | 256° |
| 2026-05-05 00:22 | 39.95395 | -98.15816 | 33695 ft | 358 kts | 257° |
| 2026-05-05 00:23 | 39.93624 | -98.21862 | 33699 ft | 355 kts | 257° |
| 2026-05-05 00:23 | 39.91868 | -98.27856 | 33707 ft | 353 kts | 257° |
| 2026-05-05 00:24 | 39.90124 | -98.33802 | 33698 ft | 351 kts | 257° |
| 2026-05-05 00:24 | 39.88384 | -98.39717 | 33698 ft | 349 kts | 257° |
| 2026-05-05 00:25 | 39.86649 | -98.45608 | 33704 ft | 348 kts | 257° |
| 2026-05-05 00:25 | 39.84910 | -98.51497 | 33702 ft | 348 kts | 257° |
| 2026-05-05 00:26 | 39.83170 | -98.57379 | 33698 ft | 349 kts | 257° |
| 2026-05-05 00:26 | 39.81420 | -98.63278 | 33702 ft | 350 kts | 257° |
| 2026-05-05 00:27 | 39.79663 | -98.69190 | 33701 ft | 351 kts | 257° |
| 2026-05-05 00:27 | 39.77897 | -98.75117 | 33684 ft | 352 kts | 257° |
| 2026-05-05 00:28 | 39.76136 | -98.81013 | 33694 ft | 352 kts | 257° |
| 2026-05-05 00:28 | 39.74372 | -98.86904 | 33685 ft | 352 kts | 257° |
| 2026-05-05 00:29 | 39.72593 | -98.92831 | 33701 ft | 352 kts | 257° |
| 2026-05-05 00:29 | 39.70813 | -98.98752 | 33711 ft | 351 kts | 257° |
| 2026-05-05 00:30 | 39.69082 | -99.04494 | 33717 ft | 351 kts | 257° |
| 2026-05-05 00:30 | 39.67301 | -99.10391 | 33698 ft | 350 kts | 256° |
| 2026-05-05 00:31 | 39.65578 | -99.16084 | 33728 ft | 348 kts | 256° |
| 2026-05-05 00:31 | 39.63814 | -99.21900 | 33747 ft | 348 kts | 256° |
| 2026-05-05 00:32 | 39.62040 | -99.27740 | 33735 ft | 348 kts | 256° |
| 2026-05-05 00:32 | 39.60267 | -99.33563 | 33739 ft | 348 kts | 256° |
| 2026-05-05 00:33 | 39.58492 | -99.39378 | 33693 ft | 349 kts | 256° |
| 2026-05-05 00:33 | 39.56715 | -99.45187 | 33689 ft | 349 kts | 256° |
| 2026-05-05 00:34 | 39.54977 | -99.50857 | 33693 ft | 349 kts | 256° |
| 2026-05-05 00:34 | 39.53181 | -99.56704 | 33710 ft | 349 kts | 256° |
| 2026-05-05 00:35 | 39.51449 | -99.62331 | 33719 ft | 350 kts | 256° |
| 2026-05-05 00:35 | 39.49653 | -99.68152 | 33732 ft | 350 kts | 256° |
| 2026-05-05 00:36 | 39.48075 | -99.73257 | 33744 ft | 350 kts | 256° |
| 2026-05-05 00:36 | 39.46265 | -99.79101 | 33750 ft | 350 kts | 256° |
| 2026-05-05 00:37 | 39.44650 | -99.84302 | 33733 ft | 350 kts | 256° |
| 2026-05-05 00:37 | 39.42836 | -99.90134 | 33747 ft | 349 kts | 256° |
| 2026-05-05 00:38 | 39.41026 | -99.95944 | 33745 ft | 348 kts | 256° |
| 2026-05-05 00:38 | 39.39241 | -100.01660 | 33739 ft | 348 kts | 256° |
| 2026-05-05 00:39 | 39.37434 | -100.07435 | 33684 ft | 348 kts | 256° |
| 2026-05-05 00:39 | 39.35620 | -100.13216 | 33690 ft | 346 kts | 256° |
| 2026-05-05 00:40 | 39.33814 | -100.18962 | 33687 ft | 344 kts | 256° |
| 2026-05-05 00:40 | 39.32018 | -100.24665 | 33684 ft | 342 kts | 256° |
| 2026-05-05 00:41 | 39.30228 | -100.30335 | 33679 ft | 340 kts | 256° |
| 2026-05-05 00:41 | 39.28458 | -100.35931 | 33670 ft | 338 kts | 256° |
| 2026-05-05 00:42 | 39.26680 | -100.41545 | 33684 ft | 337 kts | 256° |
| 2026-05-05 00:42 | 39.24905 | -100.47138 | 33686 ft | 336 kts | 256° |
| 2026-05-05 00:43 | 39.23130 | -100.52721 | 33698 ft | 336 kts | 256° |
| 2026-05-05 00:43 | 39.21353 | -100.58298 | 33701 ft | 336 kts | 257° |
| 2026-05-05 00:44 | 39.19587 | -100.63827 | 33712 ft | 336 kts | 256° |
| 2026-05-05 00:44 | 39.17805 | -100.69394 | 33727 ft | 336 kts | 256° |
| 2026-05-05 00:45 | 39.16021 | -100.74960 | 33732 ft | 336 kts | 256° |
| 2026-05-05 00:45 | 39.14233 | -100.80526 | 33732 ft | 336 kts | 256° |
| 2026-05-05 00:46 | 39.12441 | -100.86092 | 33732 ft | 336 kts | 256° |
| 2026-05-05 00:46 | 39.10658 | -100.91621 | 33737 ft | 339 kts | 256° |
| 2026-05-05 00:47 | 39.08817 | -100.97338 | 33731 ft | 351 kts | 256° |
| 2026-05-05 00:47 | 39.06932 | -101.03169 | 33713 ft | 361 kts | 256° |
| 2026-05-05 00:48 | 39.04983 | -101.09162 | 33644 ft | 362 kts | 256° |
| 2026-05-05 00:48 | 39.03081 | -101.14971 | 33658 ft | 347 kts | 256° |
| 2026-05-05 00:49 | 39.01218 | -101.20688 | 33661 ft | 348 kts | 256° |
| 2026-05-05 00:49 | 38.99349 | -101.26426 | 33641 ft | 349 kts | 256° |
| 2026-05-05 00:50 | 38.97459 | -101.32206 | 33648 ft | 351 kts | 256° |
| 2026-05-05 00:50 | 38.95563 | -101.37988 | 33641 ft | 351 kts | 256° |
| 2026-05-05 00:51 | 38.93664 | -101.43768 | 33638 ft | 351 kts | 256° |
| 2026-05-05 00:51 | 38.91764 | -101.49536 | 33627 ft | 350 kts | 256° |
| 2026-05-05 00:52 | 38.89874 | -101.55267 | 33629 ft | 348 kts | 256° |
| 2026-05-05 00:52 | 38.87997 | -101.60948 | 33629 ft | 347 kts | 256° |
| 2026-05-05 00:53 | 38.86110 | -101.66649 | 33627 ft | 346 kts | 256° |
| 2026-05-05 00:53 | 38.84114 | -101.72286 | 33627 ft | 349 kts | 252° |
| 2026-05-05 00:54 | 38.81875 | -101.77801 | 33627 ft | 349 kts | 251° |
| 2026-05-05 00:54 | 38.79614 | -101.83307 | 33622 ft | 348 kts | 251° |
| 2026-05-05 00:55 | 38.77363 | -101.88803 | 33626 ft | 348 kts | 251° |
| 2026-05-05 00:55 | 38.75134 | -101.94257 | 33623 ft | 348 kts | 251° |
| 2026-05-05 00:56 | 38.72893 | -101.99745 | 33606 ft | 347 kts | 251° |
| 2026-05-05 00:56 | 38.70683 | -102.05152 | 33559 ft | 347 kts | 250° |
| 2026-05-05 00:57 | 38.68441 | -102.10620 | 33604 ft | 347 kts | 250° |
| 2026-05-05 00:57 | 38.66193 | -102.16088 | 33617 ft | 348 kts | 250° |
| 2026-05-05 00:58 | 38.63936 | -102.21575 | 33620 ft | 349 kts | 250° |
| 2026-05-05 00:58 | 38.61670 | -102.27073 | 33622 ft | 350 kts | 250° |
| 2026-05-05 00:59 | 38.59773 | -102.31668 | 33619 ft | 351 kts | 250° |
| 2026-05-05 00:59 | 38.57488 | -102.37195 | 33620 ft | 352 kts | 250° |
| 2026-05-05 01:00 | 38.54821 | -102.43633 | 33618 ft | 353 kts | 249° |
| 2026-05-05 01:00 | 38.52909 | -102.48240 | 33620 ft | 353 kts | 249° |
| 2026-05-05 01:01 | 38.50610 | -102.53770 | 33624 ft | 352 kts | 249° |
| 2026-05-05 01:01 | 38.48312 | -102.59289 | 33622 ft | 352 kts | 249° |
| 2026-05-05 01:02 | 38.46010 | -102.64810 | 33568 ft | 352 kts | 249° |
| 2026-05-05 01:02 | 38.43713 | -102.70302 | 33620 ft | 350 kts | 249° |
| 2026-05-05 01:03 | 38.41438 | -102.75737 | 33610 ft | 348 kts | 249° |
| 2026-05-05 01:03 | 38.39153 | -102.81189 | 33617 ft | 348 kts | 249° |
| 2026-05-05 01:04 | 38.36869 | -102.86629 | 33626 ft | 349 kts | 249° |
| 2026-05-05 01:04 | 38.33421 | -102.94822 | 33624 ft | 350 kts | 249° |
| 2026-05-05 01:05 | 38.31144 | -103.00222 | 33625 ft | 352 kts | 249° |
| 2026-05-05 01:05 | 38.28819 | -103.05724 | 33617 ft | 353 kts | 249° |
| 2026-05-05 01:06 | 38.26484 | -103.11240 | 33617 ft | 354 kts | 249° |
| 2026-05-05 01:06 | 38.24146 | -103.16753 | 33616 ft | 354 kts | 249° |
| 2026-05-05 01:07 | 38.21800 | -103.22276 | 33637 ft | 355 kts | 249° |
| 2026-05-05 01:07 | 38.19457 | -103.27782 | 33656 ft | 356 kts | 249° |
| 2026-05-05 01:08 | 38.17097 | -103.33318 | 33692 ft | 356 kts | 248° |
| 2026-05-05 01:08 | 38.14730 | -103.38860 | 33703 ft | 356 kts | 248° |
| 2026-05-05 01:09 | 38.12364 | -103.44390 | 33726 ft | 356 kts | 248° |
| 2026-05-05 01:09 | 38.10000 | -103.49908 | 33713 ft | 355 kts | 248° |
| 2026-05-05 01:10 | 38.07631 | -103.55426 | 33726 ft | 357 kts | 248° |
| 2026-05-05 01:10 | 38.05263 | -103.60937 | 33734 ft | 359 kts | 248° |
| 2026-05-05 01:11 | 38.02866 | -103.66502 | 33715 ft | 361 kts | 248° |
| 2026-05-05 01:11 | 38.00453 | -103.72094 | 33693 ft | 362 kts | 248° |
| 2026-05-05 01:12 | 37.98036 | -103.77686 | 33664 ft | 363 kts | 248° |
| 2026-05-05 01:12 | 37.95603 | -103.83304 | 33598 ft | 364 kts | 248° |
| 2026-05-05 01:13 | 37.93161 | -103.88935 | 33592 ft | 364 kts | 247° |
| 2026-05-05 01:13 | 37.90716 | -103.94561 | 33600 ft | 365 kts | 247° |
| 2026-05-05 01:14 | 37.88282 | -104.00149 | 33605 ft | 366 kts | 247° |
| 2026-05-05 01:14 | 37.85826 | -104.05783 | 33598 ft | 367 kts | 247° |
| 2026-05-05 01:15 | 37.83375 | -104.11393 | 33610 ft | 367 kts | 247° |
| 2026-05-05 01:15 | 37.80904 | -104.17039 | 33607 ft | 367 kts | 247° |
| 2026-05-05 01:16 | 37.78431 | -104.22680 | 33560 ft | 366 kts | 247° |
| 2026-05-05 01:16 | 37.75960 | -104.28307 | 33609 ft | 366 kts | 247° |
| 2026-05-05 01:17 | 37.73482 | -104.33943 | 33624 ft | 368 kts | 247° |
| 2026-05-05 01:17 | 37.70987 | -104.39605 | 33639 ft | 369 kts | 247° |
| 2026-05-05 01:18 | 37.68480 | -104.45286 | 33643 ft | 371 kts | 247° |
| 2026-05-05 01:18 | 37.65974 | -104.50954 | 33651 ft | 372 kts | 247° |
| 2026-05-05 01:19 | 37.63446 | -104.56664 | 33657 ft | 373 kts | 246° |
| 2026-05-05 01:19 | 37.60875 | -104.62369 | 33652 ft | 375 kts | 245° |
| 2026-05-05 01:20 | 37.58168 | -104.67991 | 33674 ft | 375 kts | 245° |
| 2026-05-05 01:20 | 37.55443 | -104.73596 | 33677 ft | 374 kts | 245° |
| 2026-05-05 01:21 | 37.52738 | -104.79183 | 33676 ft | 373 kts | 245° |
| 2026-05-05 01:21 | 37.50042 | -104.84761 | 33680 ft | 372 kts | 245° |
| 2026-05-05 01:22 | 37.47360 | -104.90311 | 33678 ft | 371 kts | 245° |
| 2026-05-05 01:22 | 37.44700 | -104.95809 | 33709 ft | 369 kts | 245° |
| 2026-05-05 01:23 | 37.42051 | -105.01277 | 33704 ft | 371 kts | 245° |
| 2026-05-05 01:23 | 37.39358 | -105.06829 | 33711 ft | 372 kts | 245° |
| 2026-05-05 01:24 | 37.36650 | -105.12399 | 33745 ft | 374 kts | 245° |
| 2026-05-05 01:24 | 37.33944 | -105.17946 | 33752 ft | 374 kts | 245° |
| 2026-05-05 01:25 | 37.31211 | -105.23554 | 33772 ft | 377 kts | 244° |
| 2026-05-05 01:25 | 37.28465 | -105.29168 | 33817 ft | 378 kts | 245° |
| 2026-05-05 01:26 | 37.25762 | -105.34682 | 33769 ft | 368 kts | 245° |
| 2026-05-05 01:26 | 37.23093 | -105.40119 | 33789 ft | 366 kts | 245° |
| 2026-05-05 01:27 | 37.20425 | -105.45557 | 33783 ft | 366 kts | 245° |
| 2026-05-05 01:27 | 37.17752 | -105.50991 | 33789 ft | 366 kts | 245° |
| 2026-05-05 01:28 | 37.15075 | -105.56421 | 33791 ft | 366 kts | 245° |
| 2026-05-05 01:28 | 37.12400 | -105.61841 | 33787 ft | 365 kts | 245° |
| 2026-05-05 01:29 | 37.09723 | -105.67252 | 33776 ft | 365 kts | 244° |
| 2026-05-05 01:29 | 37.07048 | -105.72656 | 33790 ft | 365 kts | 244° |
| 2026-05-05 01:30 | 37.04368 | -105.78063 | 33784 ft | 366 kts | 244° |
| 2026-05-05 01:30 | 37.01691 | -105.83437 | 33787 ft | 366 kts | 244° |
| 2026-05-05 01:31 | 36.99006 | -105.88839 | 33791 ft | 366 kts | 244° |
| 2026-05-05 01:31 | 36.96309 | -105.94257 | 33798 ft | 367 kts | 244° |
| 2026-05-05 01:32 | 36.93602 | -105.99680 | 33693 ft | 368 kts | 244° |
| 2026-05-05 01:32 | 36.90918 | -106.05049 | 33780 ft | 368 kts | 244° |
| 2026-05-05 01:33 | 36.88191 | -106.10495 | 33816 ft | 371 kts | 244° |
| 2026-05-05 01:33 | 36.85451 | -106.15958 | 33814 ft | 375 kts | 244° |
| 2026-05-05 01:34 | 36.82667 | -106.21495 | 33805 ft | 378 kts | 244° |
| 2026-05-05 01:34 | 36.79871 | -106.27047 | 33830 ft | 377 kts | 244° |
| 2026-05-05 01:35 | 36.77079 | -106.32584 | 33833 ft | 377 kts | 244° |
| 2026-05-05 01:35 | 36.74302 | -106.38079 | 33838 ft | 366 kts | 244° |
| 2026-05-05 01:36 | 36.71627 | -106.43357 | 33842 ft | 359 kts | 244° |
| 2026-05-05 01:36 | 36.68941 | -106.48668 | 33839 ft | 364 kts | 244° |
| 2026-05-05 01:37 | 36.66241 | -106.53997 | 33830 ft | 367 kts | 244° |
| 2026-05-05 01:37 | 36.63507 | -106.59378 | 33813 ft | 368 kts | 244° |
| 2026-05-05 01:38 | 36.60766 | -106.64760 | 33806 ft | 368 kts | 244° |
| 2026-05-05 01:38 | 36.58027 | -106.70132 | 33828 ft | 366 kts | 243° |
| 2026-05-05 01:39 | 36.55297 | -106.75476 | 33817 ft | 365 kts | 243° |
| 2026-05-05 01:39 | 36.52573 | -106.80799 | 33806 ft | 363 kts | 243° |
| 2026-05-05 01:40 | 36.49881 | -106.86055 | 33793 ft | 361 kts | 243° |
| 2026-05-05 01:40 | 36.47184 | -106.91298 | 33802 ft | 360 kts | 243° |
| 2026-05-05 01:41 | 36.44491 | -106.96537 | 33812 ft | 359 kts | 243° |
| 2026-05-05 01:41 | 36.41843 | -107.01698 | 33816 ft | 359 kts | 243° |
| 2026-05-05 01:42 | 36.39155 | -107.06919 | 33810 ft | 359 kts | 243° |
| 2026-05-05 01:42 | 36.36460 | -107.12140 | 33822 ft | 359 kts | 243° |
| 2026-05-05 01:43 | 36.33782 | -107.17322 | 33827 ft | 359 kts | 243° |
| 2026-05-05 01:43 | 36.31076 | -107.22547 | 33821 ft | 360 kts | 243° |
| 2026-05-05 01:44 | 36.28367 | -107.27770 | 33835 ft | 360 kts | 243° |
| 2026-05-05 01:44 | 36.25669 | -107.32965 | 33830 ft | 361 kts | 243° |
| 2026-05-05 01:45 | 36.22949 | -107.38196 | 33835 ft | 361 kts | 243° |
| 2026-05-05 01:45 | 36.20222 | -107.43432 | 33830 ft | 362 kts | 242° |
| 2026-05-05 01:46 | 36.17491 | -107.48666 | 33806 ft | 362 kts | 242° |
| 2026-05-05 01:46 | 36.14762 | -107.53892 | 33826 ft | 362 kts | 242° |
| 2026-05-05 01:47 | 36.12025 | -107.59129 | 33825 ft | 362 kts | 242° |
| 2026-05-05 01:47 | 36.09384 | -107.64418 | 33813 ft | 361 kts | 243° |
| 2026-05-05 01:48 | 36.06777 | -107.69722 | 33819 ft | 361 kts | 243° |
| 2026-05-05 01:48 | 36.04165 | -107.75018 | 33798 ft | 361 kts | 243° |
| 2026-05-05 01:49 | 36.01561 | -107.80274 | 33801 ft | 361 kts | 243° |
| 2026-05-05 01:49 | 35.98939 | -107.85552 | 33802 ft | 360 kts | 243° |
| 2026-05-05 01:50 | 35.96313 | -107.90828 | 33786 ft | 360 kts | 243° |
| 2026-05-05 01:50 | 35.93679 | -107.96112 | 33780 ft | 360 kts | 243° |
| 2026-05-05 01:51 | 35.91078 | -108.01322 | 33782 ft | 360 kts | 243° |
| 2026-05-05 01:51 | 35.88463 | -108.06550 | 33768 ft | 360 kts | 243° |
| 2026-05-05 01:52 | 35.85827 | -108.11814 | 33761 ft | 360 kts | 243° |
| 2026-05-05 01:52 | 35.83195 | -108.17061 | 33722 ft | 360 kts | 242° |
| 2026-05-05 01:53 | 35.80579 | -108.22271 | 33742 ft | 360 kts | 242° |
| 2026-05-05 01:53 | 35.77938 | -108.27517 | 33750 ft | 360 kts | 242° |
| 2026-05-05 01:54 | 35.75295 | -108.32763 | 33751 ft | 360 kts | 242° |
| 2026-05-05 01:54 | 35.73096 | -108.37122 | 33750 ft | 361 kts | 242° |
| 2026-05-05 01:55 | 35.70439 | -108.42378 | 33743 ft | 362 kts | 242° |
| 2026-05-05 01:55 | 35.67778 | -108.47630 | 33726 ft | 362 kts | 242° |
| 2026-05-05 01:56 | 35.65105 | -108.52909 | 33732 ft | 364 kts | 242° |
| 2026-05-05 01:56 | 35.62421 | -108.58200 | 33718 ft | 365 kts | 242° |
| 2026-05-05 01:57 | 35.59726 | -108.63502 | 33725 ft | 366 kts | 241° |
| 2026-05-05 01:57 | 35.57037 | -108.68784 | 33728 ft | 367 kts | 241° |
| 2026-05-05 01:58 | 35.54322 | -108.74105 | 33709 ft | 367 kts | 241° |
| 2026-05-05 01:58 | 35.52965 | -108.76765 | 34022 ft | 368 kts | 241° |
| 2026-05-05 01:58 | 35.51606 | -108.79427 | 34015 ft | 368 kts | 241° |
| 2026-05-05 01:59 | 35.48889 | -108.84740 | 34017 ft | 367 kts | 240° |
| 2026-05-05 01:59 | 35.45826 | -108.89766 | 34003 ft | 371 kts | 232° |
| 2026-05-05 02:00 | 35.42243 | -108.94344 | 33952 ft | 372 kts | 231° |
| 2026-05-05 02:00 | 35.38648 | -108.98913 | 33903 ft | 372 kts | 231° |
| 2026-05-05 02:01 | 35.35144 | -109.03404 | 33865 ft | 373 kts | 231° |
| 2026-05-05 02:01 | 35.31569 | -109.08014 | 33804 ft | 373 kts | 231° |
| 2026-05-05 02:02 | 35.27995 | -109.12625 | 33784 ft | 373 kts | 231° |
| 2026-05-05 02:02 | 35.24422 | -109.17230 | 33781 ft | 373 kts | 231° |
| 2026-05-05 02:03 | 35.20843 | -109.21834 | 33785 ft | 373 kts | 231° |
| 2026-05-05 02:03 | 35.17267 | -109.26430 | 33786 ft | 373 kts | 231° |
| 2026-05-05 02:04 | 35.13696 | -109.31012 | 33838 ft | 372 kts | 231° |
| 2026-05-05 02:04 | 35.10120 | -109.35594 | 33819 ft | 372 kts | 231° |
| 2026-05-05 02:05 | 35.06552 | -109.40162 | 33802 ft | 371 kts | 231° |
| 2026-05-05 02:05 | 35.03006 | -109.44693 | 33808 ft | 371 kts | 231° |
| 2026-05-05 02:06 | 34.99446 | -109.49238 | 33810 ft | 371 kts | 230° |
| 2026-05-05 02:06 | 34.95879 | -109.53786 | 33814 ft | 371 kts | 230° |
| 2026-05-05 02:07 | 34.92312 | -109.58326 | 33818 ft | 370 kts | 230° |
| 2026-05-05 02:07 | 34.88753 | -109.62853 | 33818 ft | 370 kts | 230° |
| 2026-05-05 02:08 | 34.85193 | -109.67374 | 33814 ft | 370 kts | 230° |
| 2026-05-05 02:08 | 34.81638 | -109.71889 | 33821 ft | 369 kts | 230° |
| 2026-05-05 02:09 | 34.78093 | -109.76407 | 33830 ft | 369 kts | 230° |
| 2026-05-05 02:09 | 34.74567 | -109.80897 | 33836 ft | 369 kts | 230° |
| 2026-05-05 02:10 | 34.71086 | -109.85468 | 33828 ft | 367 kts | 236° |
| 2026-05-05 02:10 | 34.68751 | -109.90932 | 33845 ft | 364 kts | 246° |
| 2026-05-05 02:11 | 34.66693 | -109.96572 | 33862 ft | 365 kts | 246° |
| 2026-05-05 02:11 | 34.64655 | -110.02107 | 33862 ft | 366 kts | 245° |
| 2026-05-05 02:12 | 34.61508 | -110.10557 | 33874 ft | 366 kts | 245° |
| 2026-05-05 02:13 | 34.59400 | -110.16190 | 33864 ft | 367 kts | 245° |
| 2026-05-05 02:13 | 34.57287 | -110.21823 | 33885 ft | 367 kts | 245° |
| 2026-05-05 02:14 | 34.55168 | -110.27466 | 33883 ft | 368 kts | 245° |
| 2026-05-05 02:14 | 34.53058 | -110.33077 | 33887 ft | 368 kts | 245° |
| 2026-05-05 02:14 | 34.51994 | -110.35903 | 33776 ft | 371 kts | 245° |
| 2026-05-05 02:15 | 34.50922 | -110.38748 | 33464 ft | 371 kts | 245° |
| 2026-05-05 02:15 | 34.49842 | -110.41608 | 33030 ft | 372 kts | 245° |
| 2026-05-05 02:15 | 34.48761 | -110.44469 | 32540 ft | 376 kts | 245° |
| 2026-05-05 02:15 | 34.47667 | -110.47357 | 32094 ft | 379 kts | 245° |
| 2026-05-05 02:16 | 34.46562 | -110.50274 | 31648 ft | 382 kts | 245° |
| 2026-05-05 02:16 | 34.45446 | -110.53218 | 31187 ft | 386 kts | 245° |
| 2026-05-05 02:16 | 34.44321 | -110.56182 | 30726 ft | 389 kts | 245° |
| 2026-05-05 02:16 | 34.43183 | -110.59178 | 30256 ft | 393 kts | 245° |
| 2026-05-05 02:17 | 34.42033 | -110.62209 | 29719 ft | 398 kts | 245° |
| 2026-05-05 02:17 | 34.40872 | -110.65262 | 29191 ft | 400 kts | 245° |
| 2026-05-05 02:17 | 34.39705 | -110.68330 | 28676 ft | 402 kts | 245° |
| 2026-05-05 02:17 | 34.38533 | -110.71408 | 28170 ft | 403 kts | 245° |
| 2026-05-05 02:18 | 34.37351 | -110.74508 | 27677 ft | 404 kts | 245° |
| 2026-05-05 02:18 | 34.36170 | -110.77598 | 27186 ft | 405 kts | 244° |
| 2026-05-05 02:18 | 34.34730 | -110.80535 | 26680 ft | 407 kts | 233° |
| 2026-05-05 02:18 | 34.32806 | -110.83062 | 26233 ft | 409 kts | 227° |
| 2026-05-05 02:19 | 34.30831 | -110.85545 | 25718 ft | 410 kts | 228° |
| 2026-05-05 02:19 | 34.28889 | -110.88014 | 25220 ft | 411 kts | 228° |
| 2026-05-05 02:19 | 34.26927 | -110.90529 | 24708 ft | 411 kts | 228° |
| 2026-05-05 02:19 | 34.24957 | -110.93066 | 24208 ft | 405 kts | 229° |
| 2026-05-05 02:20 | 34.23073 | -110.95499 | 23721 ft | 399 kts | 228° |
| 2026-05-05 02:20 | 34.21182 | -110.97942 | 23203 ft | 397 kts | 229° |
| 2026-05-05 02:20 | 34.19344 | -111.00316 | 22693 ft | 396 kts | 229° |
| 2026-05-05 02:20 | 34.17460 | -111.02746 | 22186 ft | 396 kts | 229° |
| 2026-05-05 02:21 | 34.15583 | -111.05166 | 21707 ft | 395 kts | 229° |
| 2026-05-05 02:21 | 34.13704 | -111.07588 | 21242 ft | 395 kts | 229° |
| 2026-05-05 02:21 | 34.11821 | -111.10007 | 20755 ft | 396 kts | 229° |
| 2026-05-05 02:21 | 34.09925 | -111.12440 | 20282 ft | 397 kts | 229° |
| 2026-05-05 02:22 | 34.08033 | -111.14868 | 19807 ft | 398 kts | 229° |
| 2026-05-05 02:22 | 34.06131 | -111.17309 | 19312 ft | 400 kts | 229° |
| 2026-05-05 02:22 | 34.04251 | -111.19721 | 18811 ft | 400 kts | 229° |
| 2026-05-05 02:22 | 34.02352 | -111.22153 | 18336 ft | 397 kts | 229° |
| 2026-05-05 02:23 | 34.00469 | -111.24566 | 17755 ft | 393 kts | 229° |
| 2026-05-05 02:23 | 33.98612 | -111.26943 | 17251 ft | 389 kts | 229° |
| 2026-05-05 02:23 | 33.96766 | -111.29306 | 16755 ft | 386 kts | 229° |
| 2026-05-05 02:23 | 33.94934 | -111.31650 | 16268 ft | 383 kts | 229° |
| 2026-05-05 02:24 | 33.93115 | -111.33976 | 15789 ft | 379 kts | 228° |
| 2026-05-05 02:24 | 33.91313 | -111.36277 | 15314 ft | 377 kts | 229° |
| 2026-05-05 02:24 | 33.89523 | -111.38567 | 14877 ft | 374 kts | 228° |
| 2026-05-05 02:24 | 33.87703 | -111.40793 | 14391 ft | 373 kts | 222° |
| 2026-05-05 02:25 | 33.85613 | -111.42640 | 13952 ft | 372 kts | 216° |
| 2026-05-05 02:25 | 33.83476 | -111.44375 | 13462 ft | 370 kts | 217° |
| 2026-05-05 02:25 | 33.81386 | -111.46158 | 12951 ft | 367 kts | 217° |
| 2026-05-05 02:25 | 33.79334 | -111.47904 | 12500 ft | 363 kts | 214° |
| 2026-05-05 02:26 | 33.77096 | -111.49235 | 12222 ft | 358 kts | 203° |
| 2026-05-05 02:26 | 33.74694 | -111.50124 | 11971 ft | 364 kts | 195° |
| 2026-05-05 02:26 | 33.72180 | -111.50611 | 11729 ft | 367 kts | 191° |
| 2026-05-05 02:26 | 33.69660 | -111.51032 | 11416 ft | 365 kts | 191° |
| 2026-05-05 02:27 | 33.67153 | -111.51464 | 11016 ft | 362 kts | 191° |
| 2026-05-05 02:27 | 33.64660 | -111.51904 | 10611 ft | 363 kts | 191° |
| 2026-05-05 02:27 | 33.62166 | -111.52351 | 10183 ft | 361 kts | 191° |
| 2026-05-05 02:27 | 33.59688 | -111.52799 | 9910 ft | 360 kts | 192° |
| 2026-05-05 02:28 | 33.57267 | -111.53551 | 9256 ft | 357 kts | 202° |
| 2026-05-05 02:28 | 33.54969 | -111.54605 | 8771 ft | 351 kts | 202° |
| 2026-05-05 02:28 | 33.52695 | -111.55646 | 8343 ft | 349 kts | 201° |
| 2026-05-05 02:28 | 33.50406 | -111.56645 | 7952 ft | 351 kts | 201° |
| 2026-05-05 02:29 | 33.48117 | -111.57659 | 7639 ft | 349 kts | 204° |
| 2026-05-05 02:29 | 33.46133 | -111.59282 | 7395 ft | 348 kts | 227° |
| 2026-05-05 02:29 | 33.44905 | -111.61733 | 7091 ft | 352 kts | 248° |
| 2026-05-05 02:29 | 33.44277 | -111.64573 | 6668 ft | 352 kts | 257° |
| 2026-05-05 02:30 | 33.43938 | -111.67474 | 6190 ft | 353 kts | 267° |
| 2026-05-05 02:30 | 33.44065 | -111.70398 | 5731 ft | 348 kts | 272° |
| 2026-05-05 02:30 | 33.44121 | -111.73263 | 5275 ft | 339 kts | 268° |
| 2026-05-05 02:30 | 33.44085 | -111.76058 | 4832 ft | 332 kts | 268° |
| 2026-05-05 02:31 | 33.44078 | -111.78792 | 4398 ft | 325 kts | 269° |
| 2026-05-05 02:31 | 33.44081 | -111.81430 | 3957 ft | 308 kts | 269° |
| 2026-05-05 02:31 | 33.44079 | -111.83930 | 3569 ft | 293 kts | 269° |
| 2026-05-05 02:31 | 33.44075 | -111.86316 | 3187 ft | 281 kts | 270° |
| 2026-05-05 02:32 | 33.44075 | -111.88596 | 2807 ft | 264 kts | 269° |
| 2026-05-05 02:32 | 33.44075 | -111.90685 | 2481 ft | 246 kts | 269° |
| 2026-05-05 02:32 | 33.44072 | -111.92635 | 2205 ft | 225 kts | 269° |
| 2026-05-05 02:32 | 33.44067 | -111.94403 | 2061 ft | 202 kts | 271° |
| 2026-05-05 02:33 | 33.44083 | -111.96019 | 1805 ft | 188 kts | 272° |
| 2026-05-05 02:33 | 33.44087 | -111.97526 | 1509 ft | 175 kts | 269° |
| 2026-05-05 02:33 | 33.44083 | -111.98943 | 1203 ft | 163 kts | 270° |
| 2026-05-05 02:33 | 33.44085 | -112.00141 | 1141 ft | 133 kts | 269° |
| 2026-05-05 02:34 | 33.44083 | -112.01124 | 1125 ft | 99 kts | 270° |
| 2026-05-05 02:34 | 33.44084 | -112.01763 | 1125 ft | 55 kts | 270° |
| 2026-05-05 02:34 | 33.44082 | -112.01992 | 1122 ft | 24 kts | 250° |